Monday, October 23, 2017, 1:22 PM EDT
Back to Local

KNEL, Lakehurst Naval Air Station

Location: Lakehurst, NJ, United States Lat: 40.033
Local Time: 1:22 PM EDT (17:22 GMT) Lon: -74.317
Time Zone: US/Eastern Elev: 101 ft

Show me the last for .
Show Decoded

2017-10-23 13:00 METAR KNEL 231700Z AUTO 17014KT 10SM SCT025 BKN047 BKN055 24/17 A3019 RMK AO2
                 SLP222 T02390172 PNO $ =
2017-10-23 12:00 METAR KNEL 231600Z AUTO 14010KT 10SM BKN060 23/17 A3023 RMK AO2 SLP235 T02280172
                 PNO $ =
2017-10-23 11:00 METAR KNEL 231500Z AUTO 16014KT 10SM BKN055 23/17 A3024 RMK AO2 SLP240 6////
                 T02280172 58007 PNO $ =
2017-10-23 10:00 METAR KNEL 231400Z AUTO 14008KT 10SM CLR 21/18 A3027 RMK AO2 SLP247 T02060178
                 PNO $ =
2017-10-23 09:31 METAR KNEL 231331Z AUTO 15005KT 10SM SCT002 18/18 A3027 RMK AO2 T01830178 PNO $
                 =
2017-10-23 09:21 METAR KNEL 231321Z AUTO 15006KT 8SM BKN002 18/18 A3028 RMK AO2 T01780178 PNO $ =
2017-10-23 09:11 METAR KNEL 231311Z 17003KT 1 1/4SM BR OVC002 17/17 A3028 RMK AO2 SFC VIS 3
                 T01720172 PNO $ =
2017-10-23 09:00 METAR KNEL 231300Z 15005KT M1/4SM FG VV002 17/17 A3028 RMK AO2 SFC VIS 1/4
                 SLP253 T01670167 PNO $ =
2017-10-23 08:00 METAR KNEL 231200Z 00000KT M1/4SM FG VV002 12/12 A3028 RMK AO2 SLP254 6////
                 7//// T01220122 10133 20094 56007 PNO $ =
2017-10-23 07:00 METAR KNEL 231100Z AUTO 00000KT 1/4SM FG VV002 12/12 A3029 RMK AO2 SLP255
                 T01170117 PNO $ =
2017-10-23 06:00 METAR KNEL 231000Z AUTO 00000KT 1/4SM FG VV002 12/12 A3029 RMK AO2 SLP256
                 T01220122 PNO $ =
2017-10-23 05:00 METAR KNEL 230900Z AUTO 00000KT 1/4SM FG VV002 13/13 A3030 RMK AO2 SLP259 6////
                 T01280128 56012 PNO $ =
2017-10-23 04:00 METAR KNEL 230800Z AUTO 00000KT 1/4SM FG VV002 11/11 A3031 RMK AO2 SLP261
                 T01110111 PNO $ =
2017-10-23 03:00 METAR KNEL 230700Z AUTO 00000KT M1/4SM FG VV002 10/10 A3031 RMK AO2 SLP263
                 T01000100 PNO $ =
2017-10-23 02:13 METAR KNEL 230613Z AUTO 00000KT 1/4SM FG VV002 10/09 A3033 RMK AO2 T01000094 PNO
                 $ =
2017-10-23 02:04 METAR KNEL 230604Z AUTO 00000KT 1 3/4SM BR OVC002 10/09 A3033 =
2017-10-23 02:00 METAR KNEL 230600Z AUTO 00000KT 7SM OVC002 10/09 A3033 RMK AO2 SLP268 6////
                 T01000089 10156 20083 58008 PNO $ =
2017-10-23 01:29 METAR KNEL 230529Z AUTO 00000KT 10SM BKN001 OVC019 10/09 A3033 RMK AO2 T01000089
                 PNO $ =
2017-10-23 01:10 METAR KNEL 230510Z AUTO 00000KT 10SM FEW003 OVC021 10/09 A3034 RMK AO2 T01000089
                 PNO $ =
2017-10-23 01:00 METAR KNEL 230500Z AUTO 00000KT 10SM BKN021 10/09 A3034 RMK AO2 SLP273 T01000089
                 401000100 PNO $ =
2017-10-23 00:40 METAR KNEL 230440Z AUTO 00000KT 10SM BKN020 09/09 A3035 =
2017-10-23 00:00 METAR KNEL 230400Z AUTO 00000KT 10SM FEW018 09/08 A3036 RMK AO2 SLP278 T00890083
                 PNO $ =
2017-10-22 23:00 METAR KNEL 230300Z AUTO 00000KT 10SM CLR 11/10 A3036 RMK AO2 SLP279 6////
                 T01060100 51005 PNO $ =
2017-10-22 22:00 METAR KNEL 230200Z AUTO 00000KT 10SM CLR 11/11 A3037 RMK AO2 SLP283 T01110106
                 PNO $ =
2017-10-22 21:00 METAR KNEL 230100Z AUTO 00000KT 10SM CLR 13/12 A3036 RMK AO2 SLP280 T01330122
                 PNO $ =
2017-10-22 20:00 METAR KNEL 230000Z AUTO 00000KT 10SM CLR 14/11 A3036 RMK AO2 SLP280 6////
                 T01440111 10244 20139 50001 PNO $ =
2017-10-22 19:00 METAR KNEL 222300Z AUTO 16003KT 10SM CLR 16/11 A3035 RMK AO2 SLP277 T01560106
                 PNO $
2017-10-22 18:00 METAR KNEL 222200Z AUTO 16004KT 10SM CLR 18/09 A3035 RMK AO2 SLP278 T01830094
                 PNO $ =
2017-10-22 17:00 METAR KNEL 222100Z AUTO 17005KT 10SM CLR 22/07 A3035 RMK AO2 SLP277 6////
                 T02220072 56012 PNO $ =
2017-10-22 16:00 METAR KNEL 222000Z AUTO 18008KT 10SM CLR 23/10 A3035 RMK AO2 SLP276 T02330100
                 PNO $ =
2017-10-22 15:00 METAR KNEL 221900Z AUTO 15011KT 10SM CLR 24/12 A3036 RMK AO2 SLP278 T02390117
                 PNO $ =
2017-10-22 14:00 METAR KNEL 221800Z AUTO 15005KT 10SM CLR 24/10 A3037 RMK AO2 SLP282 6////
                 T02390100 10244 20094 58008 PNO $ =

Support USWX by starting your Amazon purchase here.